Weather History for KDYR - May, 2013

Change the Weather History Date:

Wednesday, May 22, 2013

  Actual Average Record
Temperature  
Mean Temperature 71 °F -  
Max Temperature 78 °F 77 °F 89 °F (2007)
Min Temperature 64 °F 59 °F 44 °F (2002)
Cooling Degree Days 6    
Growing Degree Days 21 (Base 50)    
Moisture  
Dew Point 57 °F    
Average Humidity 62    
Maximum Humidity 77    
Minimum Humidity 47    
Precipitation  
Precipitation 0.00 in - - ()
Sea Level Pressure  
Sea Level Pressure 29.85 in    
Wind  
Wind Speed 9 mph (SW)    
Max Wind Speed 16 mph    
Max Gust Speed 22 mph    
Visibility 10 miles    
Events      
Averages and records for this station are not official NWS values.
T = Trace of Precipitation, MM = Missing Value Source: NWS Daily Summary

Daily Weather History Graph

Daily Weather History Graph

Search for Another Location

Airport or City:

Trip Planner

Search our weather history database for the weather conditions in past years. The results will help you decide how hot, cold, wet, or windy it might be!

Date:

Astronomy

May. 22, 2013 Rise Set
Actual Time 5:46 AM CDT 8:02 PM CDT
Civil Twilight 5:17 AM CDT 8:31 PM CDT
Nautical Twilight 4:42 AM CDT 9:07 PM CDT
Astronomical Twilight 4:03 AM CDT 9:46 PM CDT
Moon 5:28 PM CDT (5/22) 3:45 AM CDT (5/22)
Length of Visible Light 15h 13m
Length of Day
14h 15m
Waxing Gibbous, 91% of the Moon is Illuminated
May 22
Waxing Gibbous
May 24
Full
May 31
Last Quarter
Jun 8
New
Jun 16
First Quarter

Hourly Weather History & Observations

Time (CDT) Temp. Dew Point Humidity Pressure Visibility Wind Dir Wind Speed Gust Speed Precip Events Conditions
1:15 AM 64.4 °F 57.2 °F 77% 29.81 in 10.0 mi SE 8.1 mph - N/A   Overcast
1:35 AM 64.4 °F 57.2 °F 77% 29.73 in 10.0 mi ESE 13.8 mph 19.6 mph N/A   Overcast
1:55 AM 64.4 °F 55.4 °F 73% 29.74 in 10.0 mi SE 9.2 mph - N/A   Partly Cloudy
2:15 AM 64.4 °F 55.4 °F 73% 29.77 in 10.0 mi South 5.8 mph - N/A   Clear
2:55 AM 64.4 °F 57.2 °F 77% 29.81 in 10.0 mi WSW 3.5 mph - N/A   Partly Cloudy
3:15 AM 64.4 °F 57.2 °F 77% 29.84 in 10.0 mi WNW 10.4 mph - N/A   Scattered Clouds
3:35 AM 64.4 °F 57.2 °F 77% 29.85 in 10.0 mi West 8.1 mph - N/A   Overcast
3:55 AM 64.4 °F 57.2 °F 77% 29.85 in 10.0 mi West 8.1 mph - N/A   Overcast
4:15 AM 64.4 °F 55.4 °F 73% 29.84 in 10.0 mi WSW 3.5 mph - N/A   Overcast
4:35 AM 64.4 °F 55.4 °F 73% 29.84 in 10.0 mi SSW 3.5 mph - N/A   Overcast
5:15 AM 64.4 °F 55.4 °F 73% 29.83 in 10.0 mi SSE 5.8 mph - N/A   Overcast
5:35 AM 64.4 °F 55.4 °F 73% 29.83 in 10.0 mi SSE 5.8 mph - N/A   Overcast
5:55 AM 64.4 °F 55.4 °F 73% 29.83 in 10.0 mi South 6.9 mph - N/A   Overcast
6:15 AM 64.4 °F 55.4 °F 73% 29.83 in 10.0 mi South 8.1 mph - N/A   Overcast
6:35 AM 64.4 °F 55.4 °F 73% 29.84 in 10.0 mi SSW 3.5 mph - N/A   Overcast
6:55 AM 64.4 °F 55.4 °F 73% 29.84 in 10.0 mi SSW 4.6 mph - N/A   Overcast
7:15 AM 64.4 °F 55.4 °F 73% 29.84 in 10.0 mi SSW 5.8 mph - N/A   Overcast
7:35 AM 66.2 °F 55.4 °F 68% 29.85 in 10.0 mi South 10.4 mph - N/A   Overcast
7:55 AM 66.2 °F 55.4 °F 68% 29.84 in 10.0 mi SSW 6.9 mph - N/A   Overcast
8:15 AM 68.0 °F 55.4 °F 64% 29.84 in 10.0 mi SSW 8.1 mph - N/A   Overcast
8:35 AM 69.8 °F 55.4 °F 60% 29.85 in 10.0 mi SW 11.5 mph - N/A   Overcast
8:55 AM 69.8 °F 57.2 °F 64% 29.85 in 10.0 mi SW 11.5 mph - N/A   Scattered Clouds
9:15 AM 69.8 °F 57.2 °F 64% 29.85 in 10.0 mi SW 10.4 mph 17.3 mph N/A   Clear
9:35 AM 69.8 °F 57.2 °F 64% 29.86 in 10.0 mi SW 10.4 mph 21.9 mph N/A   Mostly Cloudy
9:55 AM 71.6 °F 57.2 °F 60% 29.86 in 10.0 mi SW 10.4 mph - N/A   Mostly Cloudy
10:15 AM 71.6 °F 57.2 °F 60% 29.87 in 10.0 mi SW 15.0 mph - N/A   Overcast
10:35 AM 73.4 °F 59.0 °F 61% 29.87 in 10.0 mi SW 12.7 mph 20.7 mph N/A   Overcast
10:55 AM 71.6 °F 57.2 °F 60% 29.87 in 10.0 mi SW 13.8 mph - N/A   Overcast
11:15 AM 71.6 °F 59.0 °F 64% 29.87 in 10.0 mi SW 13.8 mph 20.7 mph N/A   Overcast
11:35 AM 71.6 °F 57.2 °F 60% 29.88 in 10.0 mi WSW 13.8 mph 20.7 mph N/A   Overcast
11:55 AM 71.6 °F 57.2 °F 60% 29.88 in 10.0 mi WSW 12.7 mph - N/A   Overcast
12:15 PM 71.6 °F 59.0 °F 64% 29.88 in 10.0 mi WSW 11.5 mph 16.1 mph N/A   Overcast
12:35 PM 73.4 °F 60.8 °F 65% 29.87 in 10.0 mi WSW 10.4 mph 16.1 mph N/A   Overcast
12:55 PM 75.2 °F 59.0 °F 57% 29.87 in 10.0 mi WSW 13.8 mph - N/A   Overcast
1:15 PM 75.2 °F 60.8 °F 61% 29.87 in 10.0 mi West 16.1 mph - N/A   Mostly Cloudy
1:35 PM 77.0 °F 60.8 °F 57% 29.87 in 10.0 mi WSW 13.8 mph 18.4 mph N/A   Partly Cloudy
1:55 PM 77.0 °F 60.8 °F 57% 29.87 in 10.0 mi WSW 12.7 mph 21.9 mph N/A   Scattered Clouds
2:15 PM 78.8 °F 60.8 °F 54% 29.86 in 10.0 mi WSW 16.1 mph - N/A   Scattered Clouds
2:35 PM 77.0 °F 60.8 °F 57% 29.86 in 10.0 mi WSW 11.5 mph - N/A   Mostly Cloudy
2:55 PM 78.8 °F 60.8 °F 54% 29.86 in 10.0 mi SW 13.8 mph 17.3 mph N/A   Scattered Clouds
3:15 PM 78.8 °F 60.8 °F 54% 29.85 in 10.0 mi WSW 11.5 mph - N/A   Scattered Clouds
3:35 PM 78.8 °F 57.2 °F 47% 29.85 in 10.0 mi WSW 13.8 mph 18.4 mph N/A   Partly Cloudy
3:55 PM 78.8 °F 59.0 °F 51% 29.85 in 10.0 mi SW 12.7 mph 17.3 mph N/A   Partly Cloudy
4:15 PM 78.8 °F 59.0 °F 51% 29.85 in 10.0 mi WSW 12.7 mph - N/A   Partly Cloudy
4:35 PM 78.8 °F 59.0 °F 51% 29.85 in 10.0 mi WSW 11.5 mph - N/A   Partly Cloudy
4:55 PM 78.8 °F 59.0 °F 51% 29.84 in 10.0 mi SW 11.5 mph 16.1 mph N/A   Partly Cloudy
5:15 PM 78.8 °F 59.0 °F 51% 29.85 in 10.0 mi WSW 15.0 mph - N/A   Clear
5:35 PM 78.8 °F 57.2 °F 47% 29.84 in 10.0 mi WSW 9.2 mph 17.3 mph N/A   Clear
5:55 PM 78.8 °F 57.2 °F 47% 29.84 in 10.0 mi WSW 11.5 mph - N/A   Clear
6:15 PM 78.8 °F 57.2 °F 47% 29.84 in 2.5 mi WSW 8.1 mph - N/A   Clear
6:35 PM 77.0 °F 57.2 °F 50% 29.84 in 10.0 mi WSW 11.5 mph - N/A   Clear
6:55 PM 77.0 °F 57.2 °F 50% 29.85 in 10.0 mi WSW 9.2 mph - N/A   Clear
7:15 PM 75.2 °F 57.2 °F 53% 29.85 in 10.0 mi WSW 8.1 mph - N/A   Clear
7:35 PM 75.2 °F 55.4 °F 50% 29.85 in 10.0 mi West 8.1 mph - N/A   Clear
7:55 PM 71.6 °F 55.4 °F 57% 29.86 in 10.0 mi WSW 5.8 mph - N/A   Clear
8:15 PM 71.6 °F 55.4 °F 57% 29.86 in 10.0 mi WSW 5.8 mph - N/A   Clear
8:35 PM 69.8 °F 55.4 °F 60% 29.87 in 10.0 mi WSW 5.8 mph - N/A   Clear
8:55 PM 69.8 °F 55.4 °F 60% 29.87 in 10.0 mi SSW 4.6 mph - N/A   Clear
9:15 PM 69.8 °F 55.4 °F 60% 29.87 in 10.0 mi SW 3.5 mph - N/A   Clear
9:35 PM 69.8 °F 55.4 °F 60% 29.88 in 10.0 mi SSW 4.6 mph - N/A   Clear
9:55 PM 69.8 °F 55.4 °F 60% 29.88 in 10.0 mi SSW 3.5 mph - N/A   Clear
10:15 PM 69.8 °F 55.4 °F 60% 29.88 in 10.0 mi SSW 3.5 mph - N/A   Clear
10:35 PM 69.8 °F 55.4 °F 60% 29.89 in 10.0 mi SSW 3.5 mph - N/A   Clear
10:55 PM 69.8 °F 55.4 °F 60% 29.89 in 10.0 mi SSW 3.5 mph - N/A   Clear
11:15 PM 69.8 °F 55.4 °F 60% 29.89 in 10.0 mi SSW 3.5 mph - N/A   Clear
11:35 PM 69.8 °F 55.4 °F 60% 29.90 in 10.0 mi SW 4.6 mph - N/A   Clear
11:55 PM 69.8 °F 55.4 °F 60% 29.90 in 10.0 mi SW 4.6 mph - N/A   Clear